sensor_id;sensor_type;location;lat;lon;timestamp;P1;durP1;ratioP1;P2;durP2;ratioP2
36061;SDS011;22123;52.412;20.970;2023-02-22T00:01:42;3.22;;;2.90;;
36061;SDS011;22123;52.412;20.970;2023-02-22T00:04:09;4.43;;;0.70;;
36061;SDS011;22123;52.412;20.970;2023-02-22T00:06:35;0.47;;;0.38;;
36061;SDS011;22123;52.412;20.970;2023-02-22T00:09:01;1.00;;;0.77;;
36061;SDS011;22123;52.412;20.970;2023-02-22T00:11:27;1.40;;;0.55;;
36061;SDS011;22123;52.412;20.970;2023-02-22T00:13:54;1.45;;;0.73;;
36061;SDS011;22123;52.412;20.970;2023-02-22T00:16:20;0.35;;;0.32;;
36061;SDS011;22123;52.412;20.970;2023-02-22T00:18:47;0.85;;;0.40;;
36061;SDS011;22123;52.412;20.970;2023-02-22T00:21:14;0.40;;;0.40;;
36061;SDS011;22123;52.412;20.970;2023-02-22T00:23:42;8.00;;;1.75;;
36061;SDS011;22123;52.412;20.970;2023-02-22T00:26:10;10.95;;;4.50;;
36061;SDS011;22123;52.412;20.970;2023-02-22T00:28:36;38.88;;;6.95;;
36061;SDS011;22123;52.412;20.970;2023-02-22T00:31:02;37.75;;;9.68;;
36061;SDS011;22123;52.412;20.970;2023-02-22T00:33:30;42.97;;;11.35;;
36061;SDS011;22123;52.412;20.970;2023-02-22T00:35:56;51.80;;;10.73;;
36061;SDS011;22123;52.412;20.970;2023-02-22T00:38:22;63.47;;;10.95;;
36061;SDS011;22123;52.412;20.970;2023-02-22T00:40:48;57.08;;;9.43;;
36061;SDS011;22123;52.412;20.970;2023-02-22T00:43:14;72.18;;;13.20;;
36061;SDS011;22123;52.412;20.970;2023-02-22T00:45:40;49.42;;;14.25;;
36061;SDS011;22123;52.412;20.970;2023-02-22T00:48:07;49.72;;;13.35;;
36061;SDS011;22123;52.412;20.970;2023-02-22T00:50:33;56.50;;;16.63;;
36061;SDS011;22123;52.412;20.970;2023-02-22T00:53:00;61.38;;;11.43;;
36061;SDS011;22123;52.412;20.970;2023-02-22T00:55:31;48.95;;;9.30;;
36061;SDS011;22123;52.412;20.970;2023-02-22T00:58:00;49.72;;;8.10;;
36061;SDS011;22123;52.412;20.970;2023-02-22T01:00:31;60.47;;;13.38;;
36061;SDS011;22123;52.412;20.970;2023-02-22T01:03:05;17.38;;;9.13;;
36061;SDS011;22123;52.412;20.970;2023-02-22T01:05:33;35.38;;;9.55;;
36061;SDS011;22123;52.412;20.970;2023-02-22T01:08:00;15.43;;;5.43;;
36061;SDS011;22123;52.412;20.970;2023-02-22T01:10:28;5.35;;;2.30;;
36061;SDS011;22123;52.412;20.970;2023-02-22T01:12:56;13.75;;;3.47;;
36061;SDS011;22123;52.412;20.970;2023-02-22T01:15:23;4.60;;;1.95;;
36061;SDS011;22123;52.412;20.970;2023-02-22T01:17:51;11.63;;;1.85;;
36061;SDS011;22123;52.412;20.970;2023-02-22T01:20:18;10.38;;;2.15;;
36061;SDS011;22123;52.412;20.970;2023-02-22T01:22:47;1.70;;;0.93;;
36061;SDS011;22123;52.412;20.970;2023-02-22T01:25:16;1.83;;;1.05;;
36061;SDS011;22123;52.412;20.970;2023-02-22T01:27:44;2.78;;;1.50;;
36061;SDS011;22123;52.412;20.970;2023-02-22T01:30:11;9.02;;;1.70;;
36061;SDS011;22123;52.412;20.970;2023-02-22T01:32:38;0.65;;;0.52;;
36061;SDS011;22123;52.412;20.970;2023-02-22T01:35:06;3.33;;;0.75;;
36061;SDS011;22123;52.412;20.970;2023-02-22T01:37:34;3.65;;;1.58;;
36061;SDS011;22123;52.412;20.970;2023-02-22T01:40:01;1.98;;;0.68;;
36061;SDS011;22123;52.412;20.970;2023-02-22T01:42:29;5.57;;;2.20;;
36061;SDS011;22123;52.412;20.970;2023-02-22T01:50:38;3.63;;;0.80;;
36061;SDS011;22123;52.412;20.970;2023-02-22T01:53:10;0.55;;;0.22;;
36061;SDS011;22123;52.412;20.970;2023-02-22T01:55:38;0.43;;;0.40;;
36061;SDS011;22123;52.412;20.970;2023-02-22T01:58:04;2.00;;;0.95;;
36061;SDS011;22123;52.412;20.970;2023-02-22T02:00:31;0.17;;;0.15;;
36061;SDS011;22123;52.412;20.970;2023-02-22T02:03:02;3.05;;;0.88;;
36061;SDS011;22123;52.412;20.970;2023-02-22T02:05:31;0.20;;;0.20;;
36061;SDS011;22123;52.412;20.970;2023-02-22T02:08:02;2.53;;;0.30;;
36061;SDS011;22123;52.412;20.970;2023-02-22T02:10:50;1.77;;;0.55;;
36061;SDS011;22123;52.412;20.970;2023-02-22T02:13:17;1.75;;;0.20;;
36061;SDS011;22123;52.412;20.970;2023-02-22T02:15:44;6.50;;;0.70;;
36061;SDS011;22123;52.412;20.970;2023-02-22T02:18:11;1.67;;;0.65;;
36061;SDS011;22123;52.412;20.970;2023-02-22T02:31:55;0.93;;;0.47;;
36061;SDS011;22123;52.412;20.970;2023-02-22T02:34:33;3.75;;;0.95;;
36061;SDS011;22123;52.412;20.970;2023-02-22T02:37:11;0.40;;;0.40;;
36061;SDS011;22123;52.412;20.970;2023-02-22T02:42:24;0.35;;;0.20;;
36061;SDS011;22123;52.412;20.970;2023-02-22T02:45:05;0.55;;;0.25;;
36061;SDS011;22123;52.412;20.970;2023-02-22T02:47:46;0.20;;;0.20;;
36061;SDS011;22123;52.412;20.970;2023-02-22T02:50:37;1.75;;;0.40;;
36061;SDS011;22123;52.412;20.970;2023-02-22T02:53:08;5.05;;;0.80;;
36061;SDS011;22123;52.412;20.970;2023-02-22T02:55:36;5.03;;;0.50;;
36061;SDS011;22123;52.412;20.970;2023-02-22T02:58:03;0.60;;;0.45;;
36061;SDS011;22123;52.412;20.970;2023-02-22T03:00:31;2.83;;;0.77;;
36061;SDS011;22123;52.412;20.970;2023-02-22T03:04:03;1.45;;;0.40;;
36061;SDS011;22123;52.412;20.970;2023-02-22T03:06:24;0.65;;;0.57;;
36061;SDS011;22123;52.412;20.970;2023-02-22T03:09:21;1.63;;;0.70;;
36061;SDS011;22123;52.412;20.970;2023-02-22T03:11:59;0.40;;;0.40;;
36061;SDS011;22123;52.412;20.970;2023-02-22T03:18:01;2.38;;;0.50;;
36061;SDS011;22123;52.412;20.970;2023-02-22T03:26:06;0.68;;;0.57;;
36061;SDS011;22123;52.412;20.970;2023-02-22T03:28:35;1.23;;;0.38;;
36061;SDS011;22123;52.412;20.970;2023-02-22T03:31:06;1.40;;;0.75;;
36061;SDS011;22123;52.412;20.970;2023-02-22T03:33:36;1.35;;;0.43;;
36061;SDS011;22123;52.412;20.970;2023-02-22T03:36:15;0.28;;;0.22;;
36061;SDS011;22123;52.412;20.970;2023-02-22T03:38:46;1.13;;;0.70;;
36061;SDS011;22123;52.412;20.970;2023-02-22T03:41:14;0.45;;;0.45;;
36061;SDS011;22123;52.412;20.970;2023-02-22T03:43:44;1.02;;;0.70;;
36061;SDS011;22123;52.412;20.970;2023-02-22T03:46:14;0.20;;;0.20;;
36061;SDS011;22123;52.412;20.970;2023-02-22T03:48:53;0.43;;;0.32;;
36061;SDS011;22123;52.412;20.970;2023-02-22T03:51:24;0.00;;;0.00;;
36061;SDS011;22123;52.412;20.970;2023-02-22T03:53:54;0.38;;;0.20;;
36061;SDS011;22123;52.412;20.970;2023-02-22T03:56:21;0.57;;;0.38;;
36061;SDS011;22123;52.412;20.970;2023-02-22T03:58:52;0.20;;;0.20;;
36061;SDS011;22123;52.412;20.970;2023-02-22T04:01:19;0.45;;;0.30;;
36061;SDS011;22123;52.412;20.970;2023-02-22T04:03:45;0.25;;;0.15;;
36061;SDS011;22123;52.412;20.970;2023-02-22T04:06:11;0.35;;;0.05;;
36061;SDS011;22123;52.412;20.970;2023-02-22T04:08:37;0.65;;;0.50;;
36061;SDS011;22123;52.412;20.970;2023-02-22T04:11:03;0.82;;;0.15;;
36061;SDS011;22123;52.412;20.970;2023-02-22T04:13:29;0.70;;;0.25;;
36061;SDS011;22123;52.412;20.970;2023-02-22T04:15:54;0.10;;;0.10;;
36061;SDS011;22123;52.412;20.970;2023-02-22T04:18:20;0.28;;;0.28;;
36061;SDS011;22123;52.412;20.970;2023-02-22T04:20:46;0.35;;;0.10;;
36061;SDS011;22123;52.412;20.970;2023-02-22T04:23:12;0.20;;;0.20;;
36061;SDS011;22123;52.412;20.970;2023-02-22T04:25:38;0.08;;;0.00;;
36061;SDS011;22123;52.412;20.970;2023-02-22T04:28:04;0.30;;;0.22;;
36061;SDS011;22123;52.412;20.970;2023-02-22T04:30:30;1.70;;;0.65;;
36061;SDS011;22123;52.412;20.970;2023-02-22T04:32:55;0.20;;;0.20;;
36061;SDS011;22123;52.412;20.970;2023-02-22T04:35:21;0.40;;;0.20;;
36061;SDS011;22123;52.412;20.970;2023-02-22T04:37:48;0.10;;;0.10;;
36061;SDS011;22123;52.412;20.970;2023-02-22T04:40:14;0.93;;;0.63;;
36061;SDS011;22123;52.412;20.970;2023-02-22T04:42:41;0.47;;;0.20;;
36061;SDS011;22123;52.412;20.970;2023-02-22T04:45:07;0.30;;;0.30;;
36061;SDS011;22123;52.412;20.970;2023-02-22T04:47:35;0.20;;;0.20;;
36061;SDS011;22123;52.412;20.970;2023-02-22T04:50:02;1.13;;;0.20;;
36061;SDS011;22123;52.412;20.970;2023-02-22T04:52:31;2.00;;;0.88;;
36061;SDS011;22123;52.412;20.970;2023-02-22T04:54:57;1.23;;;0.70;;
36061;SDS011;22123;52.412;20.970;2023-02-22T04:57:23;0.60;;;0.28;;
36061;SDS011;22123;52.412;20.970;2023-02-22T04:59:49;0.20;;;0.10;;
36061;SDS011;22123;52.412;20.970;2023-02-22T05:02:15;2.00;;;0.45;;
36061;SDS011;22123;52.412;20.970;2023-02-22T05:04:42;0.32;;;0.13;;
36061;SDS011;22123;52.412;20.970;2023-02-22T05:07:07;0.50;;;0.50;;
36061;SDS011;22123;52.412;20.970;2023-02-22T05:09:33;0.63;;;0.22;;
36061;SDS011;22123;52.412;20.970;2023-02-22T05:11:59;0.60;;;0.60;;
36061;SDS011;22123;52.412;20.970;2023-02-22T05:14:25;0.68;;;0.57;;
36061;SDS011;22123;52.412;20.970;2023-02-22T05:16:53;0.30;;;0.30;;
36061;SDS011;22123;52.412;20.970;2023-02-22T05:19:26;0.57;;;0.22;;
36061;SDS011;22123;52.412;20.970;2023-02-22T05:21:52;0.88;;;0.45;;
36061;SDS011;22123;52.412;20.970;2023-02-22T05:24:18;0.30;;;0.30;;
36061;SDS011;22123;52.412;20.970;2023-02-22T05:26:44;0.28;;;0.20;;
36061;SDS011;22123;52.412;20.970;2023-02-22T05:29:10;2.35;;;0.65;;
36061;SDS011;22123;52.412;20.970;2023-02-22T05:31:37;0.40;;;0.40;;
36061;SDS011;22123;52.412;20.970;2023-02-22T05:34:03;0.75;;;0.47;;
36061;SDS011;22123;52.412;20.970;2023-02-22T05:36:30;2.97;;;1.30;;
36061;SDS011;22123;52.412;20.970;2023-02-22T05:38:55;0.95;;;0.65;;
36061;SDS011;22123;52.412;20.970;2023-02-22T05:41:21;4.63;;;1.52;;
36061;SDS011;22123;52.412;20.970;2023-02-22T05:43:47;3.20;;;1.52;;
36061;SDS011;22123;52.412;20.970;2023-02-22T05:46:13;2.88;;;1.58;;
36061;SDS011;22123;52.412;20.970;2023-02-22T05:48:39;4.72;;;2.55;;
36061;SDS011;22123;52.412;20.970;2023-02-22T05:51:06;8.57;;;3.00;;
36061;SDS011;22123;52.412;20.970;2023-02-22T05:53:34;7.47;;;3.78;;
36061;SDS011;22123;52.412;20.970;2023-02-22T05:56:02;9.48;;;3.85;;
36061;SDS011;22123;52.412;20.970;2023-02-22T05:58:28;3.75;;;1.52;;
36061;SDS011;22123;52.412;20.970;2023-02-22T06:00:54;7.90;;;1.85;;
36061;SDS011;22123;52.412;20.970;2023-02-22T06:03:20;6.88;;;1.80;;
36061;SDS011;22123;52.412;20.970;2023-02-22T06:05:46;3.80;;;1.02;;
36061;SDS011;22123;52.412;20.970;2023-02-22T06:08:12;5.07;;;2.00;;
36061;SDS011;22123;52.412;20.970;2023-02-22T06:10:38;6.85;;;3.03;;
36061;SDS011;22123;52.412;20.970;2023-02-22T06:13:04;6.13;;;3.08;;
36061;SDS011;22123;52.412;20.970;2023-02-22T06:15:30;3.88;;;1.98;;
36061;SDS011;22123;52.412;20.970;2023-02-22T06:17:56;2.28;;;1.48;;
36061;SDS011;22123;52.412;20.970;2023-02-22T06:20:24;2.67;;;1.63;;
36061;SDS011;22123;52.412;20.970;2023-02-22T06:22:51;9.23;;;1.73;;
36061;SDS011;22123;52.412;20.970;2023-02-22T06:25:23;6.40;;;2.65;;
36061;SDS011;22123;52.412;20.970;2023-02-22T06:27:50;3.13;;;1.42;;
36061;SDS011;22123;52.412;20.970;2023-02-22T06:30:18;8.48;;;2.70;;
36061;SDS011;22123;52.412;20.970;2023-02-22T06:32:45;8.07;;;1.95;;
36061;SDS011;22123;52.412;20.970;2023-02-22T06:35:11;0.75;;;0.40;;
36061;SDS011;22123;52.412;20.970;2023-02-22T06:37:38;0.50;;;0.50;;
36061;SDS011;22123;52.412;20.970;2023-02-22T06:40:04;0.65;;;0.60;;
36061;SDS011;22123;52.412;20.970;2023-02-22T06:42:30;1.95;;;0.70;;
36061;SDS011;22123;52.412;20.970;2023-02-22T06:44:56;0.63;;;0.63;;
36061;SDS011;22123;52.412;20.970;2023-02-22T06:47:22;0.38;;;0.35;;
36061;SDS011;22123;52.412;20.970;2023-02-22T06:49:54;0.40;;;0.30;;
36061;SDS011;22123;52.412;20.970;2023-02-22T06:52:21;0.80;;;0.60;;
36061;SDS011;22123;52.412;20.970;2023-02-22T06:54:48;0.47;;;0.47;;
36061;SDS011;22123;52.412;20.970;2023-02-22T06:57:14;0.17;;;0.17;;
36061;SDS011;22123;52.412;20.970;2023-02-22T06:59:40;2.15;;;0.50;;
36061;SDS011;22123;52.412;20.970;2023-02-22T07:02:08;0.88;;;0.32;;
36061;SDS011;22123;52.412;20.970;2023-02-22T07:04:36;0.83;;;0.37;;
36061;SDS011;22123;52.412;20.970;2023-02-22T07:07:02;1.67;;;1.23;;
36061;SDS011;22123;52.412;20.970;2023-02-22T07:09:28;0.73;;;0.52;;
36061;SDS011;22123;52.412;20.970;2023-02-22T07:11:53;2.90;;;1.58;;
36061;SDS011;22123;52.412;20.970;2023-02-22T07:14:19;0.95;;;0.60;;
36061;SDS011;22123;52.412;20.970;2023-02-22T07:16:45;3.47;;;0.73;;
36061;SDS011;22123;52.412;20.970;2023-02-22T07:19:11;0.63;;;0.43;;
36061;SDS011;22123;52.412;20.970;2023-02-22T07:21:37;3.30;;;0.88;;
36061;SDS011;22123;52.412;20.970;2023-02-22T07:24:03;6.97;;;1.52;;
36061;SDS011;22123;52.412;20.970;2023-02-22T07:26:29;3.63;;;1.95;;
36061;SDS011;22123;52.412;20.970;2023-02-22T07:28:55;1.75;;;0.57;;
36061;SDS011;22123;52.412;20.970;2023-02-22T07:31:21;1.75;;;0.40;;
36061;SDS011;22123;52.412;20.970;2023-02-22T07:33:47;2.45;;;0.73;;
36061;SDS011;22123;52.412;20.970;2023-02-22T07:36:13;0.60;;;0.30;;
36061;SDS011;22123;52.412;20.970;2023-02-22T07:38:39;2.78;;;0.70;;
36061;SDS011;22123;52.412;20.970;2023-02-22T07:41:05;0.98;;;0.73;;
36061;SDS011;22123;52.412;20.970;2023-02-22T07:43:31;1.15;;;1.05;;
36061;SDS011;22123;52.412;20.970;2023-02-22T07:45:58;1.10;;;0.50;;
36061;SDS011;22123;52.412;20.970;2023-02-22T07:48:26;1.27;;;0.70;;
36061;SDS011;22123;52.412;20.970;2023-02-22T07:50:54;1.23;;;0.55;;
36061;SDS011;22123;52.412;20.970;2023-02-22T07:53:21;0.25;;;0.22;;
36061;SDS011;22123;52.412;20.970;2023-02-22T07:55:55;0.20;;;0.20;;
36061;SDS011;22123;52.412;20.970;2023-02-22T07:58:23;1.05;;;0.82;;
36061;SDS011;22123;52.412;20.970;2023-02-22T08:00:50;1.42;;;0.60;;
36061;SDS011;22123;52.412;20.970;2023-02-22T08:03:17;1.98;;;0.77;;
36061;SDS011;22123;52.412;20.970;2023-02-22T08:05:45;4.22;;;0.60;;
36061;SDS011;22123;52.412;20.970;2023-02-22T08:08:13;0.95;;;0.82;;
36061;SDS011;22123;52.412;20.970;2023-02-22T08:10:47;1.65;;;1.02;;
36061;SDS011;22123;52.412;20.970;2023-02-22T08:13:15;3.50;;;1.42;;
36061;SDS011;22123;52.412;20.970;2023-02-22T08:15:41;1.42;;;0.90;;
36061;SDS011;22123;52.412;20.970;2023-02-22T08:18:09;1.27;;;0.60;;
36061;SDS011;22123;52.412;20.970;2023-02-22T08:20:37;0.85;;;0.55;;
36061;SDS011;22123;52.412;20.970;2023-02-22T08:23:05;0.50;;;0.50;;
36061;SDS011;22123;52.412;20.970;2023-02-22T08:25:31;0.10;;;0.10;;
36061;SDS011;22123;52.412;20.970;2023-02-22T08:28:02;1.65;;;0.65;;
36061;SDS011;22123;52.412;20.970;2023-02-22T08:33:04;0.60;;;0.50;;
36061;SDS011;22123;52.412;20.970;2023-02-22T08:35:31;0.45;;;0.40;;
36061;SDS011;22123;52.412;20.970;2023-02-22T08:37:58;2.38;;;0.45;;
36061;SDS011;22123;52.412;20.970;2023-02-22T08:40:30;0.70;;;0.38;;
36061;SDS011;22123;52.412;20.970;2023-02-22T08:42:58;0.25;;;0.25;;
36061;SDS011;22123;52.412;20.970;2023-02-22T08:45:24;0.52;;;0.35;;
36061;SDS011;22123;52.412;20.970;2023-02-22T08:47:50;3.00;;;0.65;;
36061;SDS011;22123;52.412;20.970;2023-02-22T08:50:29;3.40;;;1.25;;
36061;SDS011;22123;52.412;20.970;2023-02-22T08:52:57;1.20;;;0.65;;
36061;SDS011;22123;52.412;20.970;2023-02-22T08:55:27;0.85;;;0.57;;
36061;SDS011;22123;52.412;20.970;2023-02-22T08:57:55;0.10;;;0.10;;
36061;SDS011;22123;52.412;20.970;2023-02-22T09:00:21;0.55;;;0.47;;
36061;SDS011;22123;52.412;20.970;2023-02-22T09:02:47;2.08;;;0.65;;
36061;SDS011;22123;52.412;20.970;2023-02-22T09:05:13;0.47;;;0.40;;
36061;SDS011;22123;52.412;20.970;2023-02-22T09:07:40;1.55;;;0.85;;
36061;SDS011;22123;52.412;20.970;2023-02-22T09:10:06;0.80;;;0.43;;
36061;SDS011;22123;52.412;20.970;2023-02-22T09:12:32;0.95;;;0.60;;
36061;SDS011;22123;52.412;20.970;2023-02-22T09:14:58;1.00;;;0.85;;
36061;SDS011;22123;52.412;20.970;2023-02-22T09:17:24;0.73;;;0.55;;
36061;SDS011;22123;52.412;20.970;2023-02-22T09:19:50;1.02;;;0.73;;
36061;SDS011;22123;52.412;20.970;2023-02-22T09:22:16;1.77;;;1.08;;
36061;SDS011;22123;52.412;20.970;2023-02-22T09:24:41;5.63;;;0.88;;
36061;SDS011;22123;52.412;20.970;2023-02-22T09:27:07;4.07;;;0.80;;
36061;SDS011;22123;52.412;20.970;2023-02-22T09:29:33;1.13;;;0.25;;
36061;SDS011;22123;52.412;20.970;2023-02-22T09:31:59;2.13;;;0.95;;
36061;SDS011;22123;52.412;20.970;2023-02-22T09:34:25;0.82;;;0.73;;
36061;SDS011;22123;52.412;20.970;2023-02-22T09:36:51;1.15;;;0.63;;
36061;SDS011;22123;52.412;20.970;2023-02-22T09:39:17;2.38;;;1.20;;
36061;SDS011;22123;52.412;20.970;2023-02-22T09:47:14;1.30;;;0.28;;
36061;SDS011;22123;52.412;20.970;2023-02-22T09:49:45;0.83;;;0.37;;
36061;SDS011;22123;52.412;20.970;2023-02-22T09:52:28;1.33;;;0.68;;
36061;SDS011;22123;52.412;20.970;2023-02-22T09:55:03;3.17;;;0.80;;
36061;SDS011;22123;52.412;20.970;2023-02-22T09:57:41;2.03;;;0.63;;
36061;SDS011;22123;52.412;20.970;2023-02-22T10:00:16;0.65;;;0.65;;
36061;SDS011;22123;52.412;20.970;2023-02-22T10:02:49;1.40;;;1.13;;
36061;SDS011;22123;52.412;20.970;2023-02-22T10:05:26;2.38;;;1.15;;
36061;SDS011;22123;52.412;20.970;2023-02-22T10:07:58;1.35;;;0.82;;
36061;SDS011;22123;52.412;20.970;2023-02-22T10:10:28;0.68;;;0.45;;
36061;SDS011;22123;52.412;20.970;2023-02-22T10:13:03;1.85;;;0.95;;
36061;SDS011;22123;52.412;20.970;2023-02-22T10:20:56;0.65;;;0.47;;
36061;SDS011;22123;52.412;20.970;2023-02-22T10:23:33;1.98;;;0.82;;
36061;SDS011;22123;52.412;20.970;2023-02-22T10:26:17;1.55;;;0.35;;
36061;SDS011;22123;52.412;20.970;2023-02-22T10:28:58;1.00;;;0.47;;
36061;SDS011;22123;52.412;20.970;2023-02-22T10:31:29;1.33;;;0.40;;
36061;SDS011;22123;52.412;20.970;2023-02-22T10:34:00;0.98;;;0.50;;
36061;SDS011;22123;52.412;20.970;2023-02-22T10:36:28;0.98;;;0.73;;
36061;SDS011;22123;52.412;20.970;2023-02-22T10:38:55;1.10;;;0.95;;
36061;SDS011;22123;52.412;20.970;2023-02-22T10:41:30;0.98;;;0.65;;
36061;SDS011;22123;52.412;20.970;2023-02-22T10:43:59;3.30;;;0.43;;
36061;SDS011;22123;52.412;20.970;2023-02-22T10:46:26;0.80;;;0.52;;
36061;SDS011;22123;52.412;20.970;2023-02-22T10:48:55;2.25;;;0.52;;
36061;SDS011;22123;52.412;20.970;2023-02-22T10:51:26;1.70;;;0.65;;
36061;SDS011;22123;52.412;20.970;2023-02-22T10:56:47;0.77;;;0.65;;
36061;SDS011;22123;52.412;20.970;2023-02-22T10:59:33;1.17;;;0.70;;
36061;SDS011;22123;52.412;20.970;2023-02-22T11:04:56;1.30;;;0.68;;
36061;SDS011;22123;52.412;20.970;2023-02-22T11:09:55;1.80;;;0.88;;
36061;SDS011;22123;52.412;20.970;2023-02-22T11:15:25;5.38;;;1.25;;
36061;SDS011;22123;52.412;20.970;2023-02-22T11:17:49;2.22;;;0.65;;
36061;SDS011;22123;52.412;20.970;2023-02-22T11:22:56;1.10;;;0.50;;
36061;SDS011;22123;52.412;20.970;2023-02-22T11:25:27;0.93;;;0.60;;
36061;SDS011;22123;52.412;20.970;2023-02-22T11:30:34;0.70;;;0.57;;
36061;SDS011;22123;52.412;20.970;2023-02-22T11:33:09;1.10;;;0.63;;
36061;SDS011;22123;52.412;20.970;2023-02-22T11:35:53;0.63;;;0.63;;
36061;SDS011;22123;52.412;20.970;2023-02-22T11:38:20;1.75;;;0.88;;
36061;SDS011;22123;52.412;20.970;2023-02-22T11:41:11;1.20;;;0.75;;
36061;SDS011;22123;52.412;20.970;2023-02-22T11:43:42;1.92;;;0.63;;
36061;SDS011;22123;52.412;20.970;2023-02-22T11:48:54;2.88;;;1.05;;
36061;SDS011;22123;52.412;20.970;2023-02-22T11:56:51;2.42;;;1.08;;
36061;SDS011;22123;52.412;20.970;2023-02-22T11:59:27;4.32;;;0.95;;
36061;SDS011;22123;52.412;20.970;2023-02-22T12:05:22;0.22;;;0.22;;
36061;SDS011;22123;52.412;20.970;2023-02-22T12:11:12;1.95;;;0.70;;
36061;SDS011;22123;52.412;20.970;2023-02-22T12:22:42;3.20;;;0.93;;
36061;SDS011;22123;52.412;20.970;2023-02-22T12:24:59;0.50;;;0.40;;
36061;SDS011;22123;52.412;20.970;2023-02-22T12:27:30;1.05;;;0.50;;
36061;SDS011;22123;52.412;20.970;2023-02-22T12:30:04;3.03;;;1.00;;
36061;SDS011;22123;52.412;20.970;2023-02-22T12:35:08;2.38;;;0.80;;
36061;SDS011;22123;52.412;20.970;2023-02-22T12:43:18;0.25;;;0.25;;
36061;SDS011;22123;52.412;20.970;2023-02-22T12:45:56;1.25;;;0.52;;
36061;SDS011;22123;52.412;20.970;2023-02-22T12:51:09;1.25;;;0.65;;
36061;SDS011;22123;52.412;20.970;2023-02-22T12:54:35;0.40;;;0.40;;
36061;SDS011;22123;52.412;20.970;2023-02-22T12:56:49;0.88;;;0.45;;
36061;SDS011;22123;52.412;20.970;2023-02-22T13:02:10;3.85;;;0.63;;
36061;SDS011;22123;52.412;20.970;2023-02-22T13:04:42;8.48;;;1.13;;
36061;SDS011;22123;52.412;20.970;2023-02-22T13:07:20;1.52;;;0.85;;
36061;SDS011;22123;52.412;20.970;2023-02-22T13:10:12;0.20;;;0.20;;
36061;SDS011;22123;52.412;20.970;2023-02-22T13:21:03;1.25;;;0.73;;
36061;SDS011;22123;52.412;20.970;2023-02-22T13:28:54;0.57;;;0.40;;
36061;SDS011;22123;52.412;20.970;2023-02-22T13:31:30;0.50;;;0.43;;
36061;SDS011;22123;52.412;20.970;2023-02-22T13:34:25;1.08;;;0.70;;
36061;SDS011;22123;52.412;20.970;2023-02-22T13:42:27;1.42;;;0.85;;
36061;SDS011;22123;52.412;20.970;2023-02-22T13:50:32;3.40;;;1.27;;
36061;SDS011;22123;52.412;20.970;2023-02-22T13:53:04;3.05;;;1.02;;
36061;SDS011;22123;52.412;20.970;2023-02-22T13:55:36;0.68;;;0.47;;
36061;SDS011;22123;52.412;20.970;2023-02-22T13:58:06;1.08;;;0.57;;
36061;SDS011;22123;52.412;20.970;2023-02-22T14:00:50;0.75;;;0.57;;
36061;SDS011;22123;52.412;20.970;2023-02-22T14:03:30;3.03;;;0.85;;
36061;SDS011;22123;52.412;20.970;2023-02-22T14:05:58;1.98;;;0.88;;
36061;SDS011;22123;52.412;20.970;2023-02-22T14:10:54;2.75;;;1.15;;
36061;SDS011;22123;52.412;20.970;2023-02-22T14:13:21;1.75;;;1.15;;
36061;SDS011;22123;52.412;20.970;2023-02-22T14:18:23;1.35;;;0.88;;
36061;SDS011;22123;52.412;20.970;2023-02-22T14:23:34;0.65;;;0.57;;
36061;SDS011;22123;52.412;20.970;2023-02-22T14:26:12;1.20;;;0.73;;
36061;SDS011;22123;52.412;20.970;2023-02-22T14:33:58;4.95;;;0.68;;
36061;SDS011;22123;52.412;20.970;2023-02-22T14:41:56;3.72;;;0.98;;
36061;SDS011;22123;52.412;20.970;2023-02-22T14:44:29;3.38;;;0.55;;
36061;SDS011;22123;52.412;20.970;2023-02-22T14:46:59;1.05;;;0.60;;
36061;SDS011;22123;52.412;20.970;2023-02-22T14:49:30;1.38;;;0.93;;
36061;SDS011;22123;52.412;20.970;2023-02-22T14:54:32;1.40;;;0.50;;
36061;SDS011;22123;52.412;20.970;2023-02-22T14:57:24;0.73;;;0.47;;
36061;SDS011;22123;52.412;20.970;2023-02-22T15:03:03;0.98;;;0.35;;
36061;SDS011;22123;52.412;20.970;2023-02-22T15:05:36;3.30;;;1.45;;
36061;SDS011;22123;52.412;20.970;2023-02-22T15:08:04;4.20;;;0.90;;
36061;SDS011;22123;52.412;20.970;2023-02-22T15:13:26;1.70;;;1.23;;
36061;SDS011;22123;52.412;20.970;2023-02-22T15:18:38;4.35;;;1.42;;
36061;SDS011;22123;52.412;20.970;2023-02-22T15:21:10;5.70;;;1.23;;
36061;SDS011;22123;52.412;20.970;2023-02-22T15:23:44;4.25;;;1.38;;
36061;SDS011;22123;52.412;20.970;2023-02-22T15:26:24;4.38;;;2.05;;
36061;SDS011;22123;52.412;20.970;2023-02-22T15:28:56;4.57;;;1.73;;
36061;SDS011;22123;52.412;20.970;2023-02-22T15:33:50;4.28;;;1.02;;
36061;SDS011;22123;52.412;20.970;2023-02-22T15:36:17;12.90;;;1.95;;
36061;SDS011;22123;52.412;20.970;2023-02-22T15:38:48;1.08;;;0.90;;
36061;SDS011;22123;52.412;20.970;2023-02-22T15:41:19;2.67;;;1.48;;
36061;SDS011;22123;52.412;20.970;2023-02-22T15:43:57;2.35;;;1.25;;
36061;SDS011;22123;52.412;20.970;2023-02-22T15:46:28;7.15;;;1.40;;
36061;SDS011;22123;52.412;20.970;2023-02-22T15:51:36;7.53;;;2.42;;
36061;SDS011;22123;52.412;20.970;2023-02-22T15:54:04;15.52;;;4.22;;
36061;SDS011;22123;52.412;20.970;2023-02-22T15:56:31;18.20;;;5.00;;
36061;SDS011;22123;52.412;20.970;2023-02-22T15:59:01;26.45;;;7.07;;
36061;SDS011;22123;52.412;20.970;2023-02-22T16:01:40;26.33;;;6.85;;
36061;SDS011;22123;52.412;20.970;2023-02-22T16:04:19;46.83;;;7.97;;
36061;SDS011;22123;52.412;20.970;2023-02-22T16:06:47;14.18;;;4.20;;
36061;SDS011;22123;52.412;20.970;2023-02-22T16:09:18;4.43;;;2.65;;
36061;SDS011;22123;52.412;20.970;2023-02-22T16:11:46;4.88;;;2.47;;
36061;SDS011;22123;52.412;20.970;2023-02-22T16:16:54;4.07;;;2.13;;
36061;SDS011;22123;52.412;20.970;2023-02-22T16:19:48;5.93;;;1.48;;
36061;SDS011;22123;52.412;20.970;2023-02-22T16:27:47;4.10;;;1.30;;
36061;SDS011;22123;52.412;20.970;2023-02-22T16:32:53;2.10;;;1.55;;
36061;SDS011;22123;52.412;20.970;2023-02-22T16:35:21;4.75;;;2.15;;
36061;SDS011;22123;52.412;20.970;2023-02-22T16:37:50;3.00;;;0.93;;
36061;SDS011;22123;52.412;20.970;2023-02-22T16:40:21;1.58;;;1.25;;
36061;SDS011;22123;52.412;20.970;2023-02-22T16:42:49;1.90;;;1.52;;
36061;SDS011;22123;52.412;20.970;2023-02-22T16:45:16;1.75;;;1.23;;
36061;SDS011;22123;52.412;20.970;2023-02-22T16:47:43;9.63;;;2.28;;
36061;SDS011;22123;52.412;20.970;2023-02-22T16:50:09;1.58;;;0.75;;
36061;SDS011;22123;52.412;20.970;2023-02-22T16:52:37;4.65;;;0.80;;
36061;SDS011;22123;52.412;20.970;2023-02-22T16:55:05;2.90;;;1.73;;
36061;SDS011;22123;52.412;20.970;2023-02-22T16:57:35;4.38;;;2.22;;
36061;SDS011;22123;52.412;20.970;2023-02-22T17:00:04;2.20;;;1.52;;
36061;SDS011;22123;52.412;20.970;2023-02-22T17:02:32;3.25;;;1.70;;
36061;SDS011;22123;52.412;20.970;2023-02-22T17:04:58;7.10;;;3.03;;
36061;SDS011;22123;52.412;20.970;2023-02-22T17:07:24;18.13;;;6.15;;
36061;SDS011;22123;52.412;20.970;2023-02-22T17:09:50;17.00;;;6.05;;
36061;SDS011;22123;52.412;20.970;2023-02-22T17:12:16;11.82;;;4.40;;
36061;SDS011;22123;52.412;20.970;2023-02-22T17:14:43;15.85;;;4.80;;
36061;SDS011;22123;52.412;20.970;2023-02-22T17:17:11;6.03;;;3.80;;
36061;SDS011;22123;52.412;20.970;2023-02-22T17:19:37;10.43;;;4.30;;
36061;SDS011;22123;52.412;20.970;2023-02-22T17:22:03;5.85;;;2.83;;
36061;SDS011;22123;52.412;20.970;2023-02-22T17:24:29;9.50;;;3.78;;
36061;SDS011;22123;52.412;20.970;2023-02-22T17:26:55;9.43;;;3.50;;
36061;SDS011;22123;52.412;20.970;2023-02-22T17:29:21;11.25;;;3.88;;
36061;SDS011;22123;52.412;20.970;2023-02-22T17:31:47;11.93;;;4.40;;
36061;SDS011;22123;52.412;20.970;2023-02-22T17:34:13;10.35;;;5.55;;